createdAt,value
2017-06-26T00:01:44.290Z,15.80
2017-06-26T00:04:12.586Z,15.90
2017-06-26T00:06:40.127Z,15.90
2017-06-26T00:09:07.656Z,16.00
2017-06-26T00:11:35.207Z,15.90
2017-06-26T00:14:03.493Z,15.90
2017-06-26T00:16:31.034Z,15.90
2017-06-26T00:18:58.559Z,15.90
2017-06-26T00:21:26.095Z,15.80
2017-06-26T00:23:53.613Z,15.70
2017-06-26T00:26:21.139Z,15.70
2017-06-26T00:28:48.682Z,15.70
2017-06-26T00:31:16.231Z,15.60
2017-06-26T00:33:43.775Z,15.50
2017-06-26T00:36:11.299Z,15.50
2017-06-26T00:38:39.614Z,15.50
2017-06-26T00:41:07.134Z,15.40
2017-06-26T00:43:34.675Z,15.40
2017-06-26T00:46:02.386Z,15.30
2017-06-26T00:48:29.911Z,15.30
2017-06-26T00:50:57.462Z,15.30
2017-06-26T00:53:24.993Z,15.40
2017-06-26T00:55:52.540Z,15.40
2017-06-26T00:58:20.061Z,15.40
2017-06-26T01:00:47.614Z,15.40
2017-06-26T01:03:15.134Z,15.30
2017-06-26T01:05:42.659Z,15.30
2017-06-26T01:08:10.197Z,15.30
2017-06-26T01:10:37.723Z,15.30
2017-06-26T01:13:06.030Z,15.20
2017-06-26T01:15:33.543Z,15.20
2017-06-26T01:18:01.100Z,15.20
2017-06-26T01:20:28.631Z,15.00
2017-06-26T01:22:56.162Z,14.80
2017-06-26T01:25:23.707Z,14.70
2017-06-26T01:27:51.990Z,14.60
2017-06-26T01:30:19.527Z,14.60
2017-06-26T01:32:47.051Z,14.50
2017-06-26T01:35:15.363Z,14.40
2017-06-26T01:37:43.656Z,14.40
2017-06-26T01:40:11.960Z,14.50
2017-06-26T01:42:39.479Z,14.40
2017-06-26T01:45:07.026Z,14.50
2017-06-26T01:47:35.311Z,14.70
2017-06-26T01:50:02.849Z,14.60
2017-06-26T01:52:30.370Z,14.70
2017-06-26T01:54:57.931Z,14.70
2017-06-26T01:57:25.455Z,14.80
2017-06-26T01:59:52.979Z,14.80
2017-06-26T02:02:21.286Z,14.60
2017-06-26T02:04:49.571Z,14.50
2017-06-26T02:07:17.118Z,14.40
2017-06-26T02:09:45.410Z,14.30
2017-06-26T02:12:12.972Z,14.20
2017-06-26T02:14:40.491Z,14.30
2017-06-26T02:17:08.030Z,14.30
2017-06-26T02:19:35.554Z,14.30
2017-06-26T02:22:03.894Z,14.20
2017-06-26T02:24:31.414Z,14.20
2017-06-26T02:26:58.935Z,14.10
2017-06-26T02:29:27.258Z,14.10
2017-06-26T02:31:54.787Z,14.00
2017-06-26T02:34:23.099Z,14.30
2017-06-26T02:36:50.623Z,14.20
2017-06-26T02:39:18.171Z,14.40
2017-06-26T02:41:45.694Z,14.50
2017-06-26T02:44:14.011Z,14.60
2017-06-26T02:46:41.535Z,14.50
2017-06-26T02:49:09.082Z,14.60
2017-06-26T02:51:37.375Z,14.50
2017-06-26T02:54:04.895Z,14.50
2017-06-26T02:56:32.437Z,14.50
2017-06-26T02:58:59.961Z,14.50
2017-06-26T03:01:27.503Z,14.50
2017-06-26T03:03:55.027Z,14.60
2017-06-26T03:06:22.567Z,14.60
2017-06-26T03:08:50.146Z,14.70
2017-06-26T03:11:17.685Z,14.70
2017-06-26T03:13:45.207Z,14.70
2017-06-26T03:16:12.730Z,14.80
2017-06-26T03:18:40.272Z,14.90
2017-06-26T03:21:07.799Z,14.90
2017-06-26T03:23:35.338Z,15.00
2017-06-26T03:26:03.632Z,15.20
2017-06-26T03:28:31.180Z,15.20
2017-06-26T03:30:58.697Z,15.30
2017-06-26T03:33:26.242Z,15.30
2017-06-26T03:35:53.768Z,15.30
2017-06-26T03:38:21.331Z,15.30
2017-06-26T03:40:48.855Z,15.30
2017-06-26T03:43:16.375Z,15.30
2017-06-26T03:45:43.918Z,15.40
2017-06-26T03:48:11.439Z,15.30
2017-06-26T03:50:38.982Z,15.30
2017-06-26T03:53:07.276Z,15.30
2017-06-26T03:55:34.827Z,15.30
2017-06-26T03:58:03.120Z,15.40
2017-06-26T04:00:31.432Z,15.50
2017-06-26T04:02:58.956Z,15.50
2017-06-26T04:05:26.496Z,15.70
2017-06-26T04:07:54.014Z,15.80
2017-06-26T04:10:21.535Z,15.90
2017-06-26T04:12:49.081Z,16.00
2017-06-26T04:15:17.373Z,16.20
2017-06-26T04:17:44.912Z,16.20
2017-06-26T04:20:12.442Z,16.20
2017-06-26T04:22:39.982Z,16.30
2017-06-26T04:25:07.507Z,16.40
2017-06-26T04:27:35.071Z,16.60
2017-06-26T04:30:02.591Z,16.80
2017-06-26T04:32:30.121Z,17.00
2017-06-26T04:34:57.666Z,17.30
2017-06-26T04:37:25.194Z,17.50
2017-06-26T04:39:52.739Z,17.80
2017-06-26T04:42:20.268Z,18.20
2017-06-26T04:44:47.815Z,18.50
2017-06-26T04:47:15.342Z,18.60
2017-06-26T04:49:43.659Z,18.50
2017-06-26T04:52:11.183Z,18.50
2017-06-26T04:54:39.470Z,18.40
2017-06-26T04:57:07.012Z,18.40
2017-06-26T04:59:34.535Z,18.40
2017-06-26T05:02:02.075Z,18.40
2017-06-26T05:04:29.605Z,18.50
2017-06-26T05:06:57.153Z,18.50
2017-06-26T05:09:24.679Z,18.60
2017-06-26T05:11:52.227Z,18.70
2017-06-26T05:14:20.523Z,19.30
2017-06-26T05:16:48.083Z,19.20
2017-06-26T05:19:15.611Z,19.70
2017-06-26T05:21:43.137Z,20.30
2017-06-26T05:24:10.712Z,20.80
2017-06-26T05:26:38.238Z,21.20
2017-06-26T05:29:05.787Z,21.40
2017-06-26T05:31:33.307Z,21.80
2017-06-26T05:34:00.867Z,22.20
2017-06-26T05:36:28.391Z,22.90
2017-06-26T05:38:55.918Z,23.40
2017-06-26T05:41:24.228Z,22.40
2017-06-26T05:43:51.752Z,22.40
2017-06-26T05:46:19.290Z,21.90
2017-06-26T05:48:46.821Z,21.50
2017-06-26T05:51:14.362Z,21.20
2017-06-26T05:53:41.883Z,21.20
2017-06-26T05:56:09.427Z,21.20
2017-06-26T05:58:37.714Z,21.60
2017-06-26T06:01:06.004Z,21.60
2017-06-26T06:03:33.553Z,21.60
2017-06-26T06:06:01.837Z,21.50
2017-06-26T06:08:29.370Z,21.50
2017-06-26T06:10:56.892Z,21.70
2017-06-26T06:13:25.200Z,21.70
2017-06-26T06:15:52.719Z,21.70
2017-06-26T06:18:20.270Z,21.40
2017-06-26T06:20:47.791Z,21.40
2017-06-26T06:23:15.314Z,21.80
2017-06-26T06:25:42.859Z,22.20
2017-06-26T06:28:10.380Z,22.40
2017-06-26T06:30:38.687Z,22.60
2017-06-26T06:33:06.212Z,22.50
2017-06-26T06:35:33.759Z,22.90
2017-06-26T06:38:02.055Z,22.90
2017-06-26T06:40:29.621Z,22.80
2017-06-26T06:42:57.911Z,24.00
2017-06-26T06:45:26.202Z,24.30
2017-06-26T06:47:53.745Z,24.20
2017-06-26T06:50:21.267Z,24.30
2017-06-26T06:52:48.815Z,24.30
2017-06-26T06:55:16.336Z,24.30
2017-06-26T06:57:43.879Z,24.80
2017-06-26T07:00:11.398Z,25.40
2017-06-26T07:02:38.958Z,26.30
2017-06-26T07:05:07.248Z,27.00
2017-06-26T07:07:34.774Z,27.00
2017-06-26T07:10:02.323Z,27.00
2017-06-26T07:12:29.852Z,26.60
2017-06-26T07:14:57.399Z,26.80
2017-06-26T07:17:24.918Z,27.20
2017-06-26T07:19:52.459Z,27.70
2017-06-26T07:22:19.982Z,28.00
2017-06-26T07:24:47.533Z,28.30
2017-06-26T07:27:15.062Z,27.60
2017-06-26T07:29:43.407Z,27.50
2017-06-26T07:32:10.942Z,27.00
2017-06-26T07:34:39.232Z,27.60
2017-06-26T07:37:06.775Z,27.60
2017-06-26T07:39:34.298Z,27.60
2017-06-26T07:42:02.427Z,27.60
2017-06-26T07:44:29.951Z,27.30
2017-06-26T07:46:57.506Z,26.80
2017-06-26T07:49:25.794Z,26.10
2017-06-26T07:51:53.320Z,26.10
2017-06-26T07:54:20.875Z,26.60
2017-06-26T07:56:48.417Z,27.50
2017-06-26T07:59:15.962Z,28.50
2017-06-26T08:01:43.487Z,28.40
2017-06-26T08:04:11.027Z,27.80
2017-06-26T08:06:39.310Z,27.80
2017-06-26T08:09:06.851Z,27.80
2017-06-26T08:11:34.379Z,28.10
2017-06-26T08:14:01.938Z,27.80
2017-06-26T08:16:29.463Z,27.70
2017-06-26T08:18:56.979Z,27.30
2017-06-26T08:21:24.523Z,27.50
2017-06-26T08:23:52.061Z,26.90
2017-06-26T08:26:19.615Z,26.20
2017-06-26T08:28:47.143Z,26.40
2017-06-26T08:31:14.691Z,27.00
2017-06-26T08:33:42.220Z,27.60
2017-06-26T08:36:09.770Z,27.90
2017-06-26T08:38:37.294Z,28.30
2017-06-26T08:41:04.816Z,28.40
2017-06-26T08:43:32.353Z,29.10
2017-06-26T08:45:59.875Z,28.80
2017-06-26T08:48:28.186Z,27.00
2017-06-26T08:50:55.716Z,27.00
2017-06-26T08:53:23.263Z,27.00
2017-06-26T08:55:51.551Z,27.90
2017-06-26T08:58:19.091Z,27.90
2017-06-26T09:00:46.611Z,28.00
2017-06-26T09:03:14.167Z,28.20
2017-06-26T09:05:41.688Z,27.60
2017-06-26T09:08:09.980Z,26.60
2017-06-26T09:10:37.522Z,26.60
2017-06-26T09:13:05.043Z,26.60
2017-06-26T09:15:32.593Z,27.00
2017-06-26T09:18:00.883Z,27.00
2017-06-26T09:20:28.427Z,27.00
2017-06-26T09:22:55.951Z,27.00
2017-06-26T09:25:24.271Z,28.20
2017-06-26T09:27:51.807Z,28.20
2017-06-26T09:30:19.364Z,28.50
2017-06-26T09:32:46.891Z,28.20
2017-06-26T09:35:14.420Z,28.40
2017-06-26T09:37:41.964Z,29.00
2017-06-26T09:40:09.491Z,29.10
2017-06-26T09:42:37.036Z,28.90
2017-06-26T09:45:04.559Z,28.90
2017-06-26T09:47:32.103Z,29.20
2017-06-26T09:50:00.394Z,28.90
2017-06-26T09:52:28.707Z,28.70
2017-06-26T09:54:56.232Z,28.70
2017-06-26T09:57:23.794Z,28.60
2017-06-26T09:59:51.315Z,28.60
2017-06-26T10:02:18.838Z,28.40
2017-06-26T10:04:46.380Z,28.10
2017-06-26T10:07:13.903Z,27.90
2017-06-26T10:09:42.215Z,28.20
2017-06-26T10:12:09.740Z,28.20
2017-06-26T10:14:37.288Z,28.70
2017-06-26T10:17:04.814Z,29.50
2017-06-26T10:19:33.118Z,30.60
2017-06-26T10:22:00.644Z,30.60
2017-06-26T10:24:28.974Z,29.40
2017-06-26T10:26:57.265Z,28.90
2017-06-26T10:29:24.787Z,28.90
2017-06-26T10:31:52.336Z,29.30
2017-06-26T10:34:20.636Z,30.30
2017-06-26T10:36:48.189Z,30.30
2017-06-26T10:39:15.714Z,30.70
2017-06-26T10:41:43.260Z,30.40
2017-06-26T10:44:10.787Z,29.80
2017-06-26T10:46:38.335Z,29.00
2017-06-26T10:49:05.859Z,28.50
2017-06-26T10:51:33.414Z,28.20
2017-06-26T10:54:00.942Z,28.50
2017-06-26T10:56:28.472Z,29.10
2017-06-26T10:58:56.012Z,29.60
2017-06-26T11:01:23.534Z,29.70
2017-06-26T11:03:51.079Z,29.30
2017-06-26T11:06:18.599Z,28.70
2017-06-26T11:08:46.908Z,29.00
2017-06-26T11:11:14.431Z,29.00
2017-06-26T11:13:42.740Z,30.10
2017-06-26T11:16:10.259Z,30.10
2017-06-26T11:18:37.798Z,30.80
2017-06-26T11:21:05.332Z,31.60
2017-06-26T11:23:33.619Z,30.70
2017-06-26T11:26:01.163Z,30.70
2017-06-26T11:28:28.723Z,30.50
2017-06-26T11:30:56.262Z,30.90
2017-06-26T11:33:24.548Z,30.20
2017-06-26T11:35:52.086Z,30.10
2017-06-26T11:38:19.607Z,30.30
2017-06-26T11:40:47.917Z,29.80
2017-06-26T11:43:15.451Z,29.80
2017-06-26T11:45:43.005Z,29.10
2017-06-26T11:48:10.537Z,28.60
2017-06-26T11:50:38.824Z,28.40
2017-06-26T11:53:06.372Z,28.40
2017-06-26T11:55:33.895Z,28.20
2017-06-26T11:58:01.430Z,28.40
2017-06-26T12:00:29.720Z,29.10
2017-06-26T12:02:58.034Z,29.60
2017-06-26T12:05:25.554Z,29.60
2017-06-26T12:07:53.112Z,29.70
2017-06-26T12:10:20.636Z,29.80
2017-06-26T12:12:48.163Z,30.00
2017-06-26T12:15:15.706Z,30.30
2017-06-26T12:17:43.231Z,30.30
2017-06-26T12:20:10.783Z,30.80
2017-06-26T12:22:38.313Z,31.20
2017-06-26T12:25:05.863Z,31.20
2017-06-26T12:27:33.382Z,29.90
2017-06-26T12:30:00.930Z,29.20
2017-06-26T12:32:28.454Z,29.40
2017-06-26T12:34:56.010Z,29.80
2017-06-26T12:37:23.534Z,30.10
2017-06-26T12:39:51.051Z,30.50
2017-06-26T12:42:19.359Z,29.20
2017-06-26T12:44:46.877Z,29.20
2017-06-26T12:47:14.423Z,29.10
2017-06-26T12:49:41.950Z,29.30
2017-06-26T12:52:09.519Z,29.70
2017-06-26T12:54:37.039Z,29.80
2017-06-26T12:57:04.597Z,29.60
2017-06-26T12:59:32.121Z,29.50
2017-06-26T13:01:59.686Z,28.80
2017-06-26T13:04:27.220Z,28.30
2017-06-26T13:06:54.742Z,28.00
2017-06-26T13:09:22.283Z,28.30
2017-06-26T13:11:49.828Z,29.00
2017-06-26T13:14:17.370Z,29.30
2017-06-26T13:16:44.891Z,29.60
2017-06-26T13:19:12.436Z,29.60
2017-06-26T13:21:39.960Z,29.80
2017-06-26T13:24:07.510Z,30.00
2017-06-26T13:26:35.030Z,30.00
2017-06-26T13:29:03.335Z,30.70
2017-06-26T13:31:30.879Z,30.70
2017-06-26T13:33:58.398Z,31.10
2017-06-26T13:36:25.949Z,31.10
2017-06-26T13:38:53.478Z,30.80
2017-06-26T13:41:21.023Z,30.20
2017-06-26T13:43:48.543Z,30.10
2017-06-26T13:46:16.103Z,29.80
2017-06-26T13:48:44.391Z,29.60
2017-06-26T13:51:11.923Z,29.60
2017-06-26T13:53:40.236Z,29.60
2017-06-26T13:56:07.759Z,29.60
2017-06-26T13:58:35.334Z,29.90
2017-06-26T14:01:02.855Z,29.90
2017-06-26T14:03:31.162Z,28.90
2017-06-26T14:05:58.686Z,28.90
2017-06-26T14:08:26.239Z,28.50
2017-06-26T14:10:53.760Z,28.80
2017-06-26T14:13:21.282Z,29.00
2017-06-26T14:15:48.827Z,29.10
2017-06-26T14:18:16.355Z,29.20
2017-06-26T14:20:43.899Z,29.50
2017-06-26T14:23:11.419Z,29.60
2017-06-26T14:25:38.959Z,29.60
2017-06-26T14:28:06.482Z,29.50
2017-06-26T14:30:34.023Z,29.50
2017-06-26T14:33:01.548Z,29.40
2017-06-26T14:35:29.114Z,29.10
2017-06-26T14:37:56.652Z,28.90
2017-06-26T14:40:24.182Z,28.40
2017-06-26T14:42:51.726Z,28.00
2017-06-26T14:45:19.253Z,28.00
2017-06-26T14:47:47.569Z,27.30
2017-06-26T14:50:15.095Z,27.30
2017-06-26T14:52:42.636Z,27.10
2017-06-26T14:55:10.167Z,27.00
2017-06-26T14:57:38.482Z,26.50
2017-06-26T15:00:06.007Z,26.50
2017-06-26T15:02:33.563Z,26.70
2017-06-26T15:05:01.098Z,27.10
2017-06-26T15:07:28.618Z,27.40
2017-06-26T15:09:56.181Z,27.50
2017-06-26T15:12:23.711Z,27.30
2017-06-26T15:14:52.021Z,27.10
2017-06-26T15:17:19.543Z,27.10
2017-06-26T15:19:47.084Z,26.70
2017-06-26T15:22:14.607Z,26.70
2017-06-26T15:24:42.166Z,26.90
2017-06-26T15:27:09.692Z,27.30
2017-06-26T15:29:37.218Z,27.60
2017-06-26T15:32:04.755Z,27.70
2017-06-26T15:34:32.280Z,27.70
2017-06-26T15:36:59.823Z,27.90
2017-06-26T15:39:27.337Z,27.80
2017-06-26T15:41:54.883Z,27.90
2017-06-26T15:44:22.409Z,27.70
2017-06-26T15:46:49.950Z,27.60
2017-06-26T15:49:17.467Z,27.80
2017-06-26T15:51:45.013Z,27.80
2017-06-26T15:54:12.538Z,27.80
2017-06-26T15:56:40.060Z,28.00
2017-06-26T15:59:08.375Z,27.70
2017-06-26T16:01:35.900Z,27.70
2017-06-26T16:04:03.450Z,27.50
2017-06-26T16:06:30.975Z,27.30
2017-06-26T16:08:59.286Z,27.20
2017-06-26T16:11:26.819Z,27.10
2017-06-26T16:13:54.358Z,27.10
2017-06-26T16:16:21.878Z,27.00
2017-06-26T16:18:49.418Z,27.00
2017-06-26T16:21:16.943Z,26.90
2017-06-26T16:23:44.497Z,26.80
2017-06-26T16:26:12.014Z,26.70
2017-06-26T16:28:39.539Z,26.70
2017-06-26T16:31:07.080Z,26.80
2017-06-26T16:33:34.604Z,26.90
2017-06-26T16:36:02.915Z,26.80
2017-06-26T16:38:30.441Z,26.80
2017-06-26T16:40:57.987Z,26.70
2017-06-26T16:43:25.510Z,26.60
2017-06-26T16:45:53.055Z,26.60
2017-06-26T16:48:21.359Z,26.90
2017-06-26T16:50:49.650Z,26.90
2017-06-26T16:53:17.955Z,26.80
2017-06-26T16:55:45.474Z,26.80
2017-06-26T16:58:13.822Z,26.60
2017-06-26T17:00:41.351Z,26.60
2017-06-26T17:03:08.883Z,26.60
2017-06-26T17:05:36.419Z,26.50
2017-06-26T17:08:03.947Z,26.40
2017-06-26T17:10:31.491Z,26.40
2017-06-26T17:12:59.010Z,26.30
2017-06-26T17:15:26.554Z,26.30
2017-06-26T17:17:54.074Z,26.30
2017-06-26T17:20:22.407Z,26.10
2017-06-26T17:22:49.930Z,26.10
2017-06-26T17:25:17.494Z,26.00
2017-06-26T17:27:45.019Z,26.00
2017-06-26T17:30:12.547Z,25.80
2017-06-26T17:32:40.857Z,25.60
2017-06-26T17:35:08.388Z,25.60
2017-06-26T17:37:35.931Z,25.60
2017-06-26T17:40:04.229Z,25.60
2017-06-26T17:42:31.770Z,25.60
2017-06-26T17:44:59.290Z,25.50
2017-06-26T17:47:27.599Z,24.90
2017-06-26T17:49:55.123Z,24.90
2017-06-26T17:52:23.415Z,24.50
2017-06-26T17:54:50.955Z,24.50
2017-06-26T17:57:18.475Z,24.30
2017-06-26T17:59:46.019Z,24.10
2017-06-26T18:02:13.547Z,24.00
2017-06-26T18:04:41.087Z,23.90
2017-06-26T18:07:08.607Z,23.90
2017-06-26T18:09:36.155Z,23.80
2017-06-26T18:12:03.687Z,23.70
2017-06-26T18:14:31.206Z,23.60
2017-06-26T18:16:58.755Z,23.50
2017-06-26T18:19:26.274Z,23.50
2017-06-26T18:21:53.815Z,23.40
2017-06-26T18:24:22.102Z,23.10
2017-06-26T18:26:49.647Z,23.10
2017-06-26T18:29:17.194Z,23.00
2017-06-26T18:31:44.738Z,22.90
2017-06-26T18:34:12.263Z,22.80
2017-06-26T18:36:39.822Z,22.60
2017-06-26T18:39:07.344Z,22.50
2017-06-26T18:41:35.627Z,22.10
2017-06-26T18:44:03.990Z,22.10
2017-06-26T18:46:31.514Z,22.00
2017-06-26T18:48:59.063Z,21.90
2017-06-26T18:51:26.585Z,21.80
2017-06-26T18:53:54.127Z,21.60
2017-06-26T18:56:21.657Z,21.50
2017-06-26T18:58:49.966Z,21.50
2017-06-26T19:01:17.491Z,21.50
2017-06-26T19:03:45.810Z,21.30
2017-06-26T19:06:13.339Z,21.30
2017-06-26T19:08:40.867Z,21.30
2017-06-26T19:11:08.419Z,21.20
2017-06-26T19:13:36.710Z,20.90
2017-06-26T19:16:05.016Z,20.70
2017-06-26T19:18:32.539Z,20.70
2017-06-26T19:21:00.854Z,20.60
2017-06-26T19:23:28.397Z,20.60
2017-06-26T19:25:55.943Z,20.60
2017-06-26T19:28:23.471Z,20.70
2017-06-26T19:30:51.035Z,20.70
2017-06-26T19:33:19.326Z,20.90
2017-06-26T19:35:47.618Z,21.00
2017-06-26T19:38:15.167Z,21.00
2017-06-26T19:40:42.690Z,21.00
2017-06-26T19:43:10.244Z,20.80
2017-06-26T19:45:37.795Z,20.60
2017-06-26T19:48:05.346Z,20.20
2017-06-26T19:50:32.866Z,20.00
2017-06-26T19:53:00.407Z,20.00
2017-06-26T19:55:27.934Z,20.00
2017-06-26T19:57:55.492Z,20.10
2017-06-26T20:00:23.023Z,20.10
2017-06-26T20:02:51.314Z,20.00
2017-06-26T20:05:18.856Z,20.00
2017-06-26T20:07:46.374Z,19.70
2017-06-26T20:10:13.919Z,19.50
2017-06-26T20:12:41.442Z,19.40
2017-06-26T20:15:08.983Z,19.30
2017-06-26T20:17:36.502Z,19.30
2017-06-26T20:20:04.831Z,19.30
2017-06-26T20:22:32.350Z,19.30
2017-06-26T20:24:59.908Z,19.30
2017-06-26T20:27:28.209Z,19.20
2017-06-26T20:29:55.734Z,19.20
2017-06-26T20:32:23.274Z,19.10
2017-06-26T20:34:50.803Z,19.10
2017-06-26T20:37:18.348Z,19.10
2017-06-26T20:39:45.875Z,19.10
2017-06-26T20:42:13.418Z,19.10
2017-06-26T20:44:40.959Z,19.20
2017-06-26T20:47:08.503Z,19.20
2017-06-26T20:49:36.795Z,19.00
2017-06-26T20:52:04.348Z,19.00
2017-06-26T20:54:32.643Z,18.80
2017-06-26T20:57:00.167Z,18.80
2017-06-26T20:59:27.714Z,18.80
2017-06-26T21:01:56.002Z,18.80
2017-06-26T21:04:23.546Z,18.80
2017-06-26T21:06:51.075Z,18.90
2017-06-26T21:09:18.623Z,18.90
2017-06-26T21:11:46.922Z,18.80
2017-06-26T21:14:14.468Z,18.80
2017-06-26T21:16:41.991Z,18.60
2017-06-26T21:19:09.538Z,18.60
2017-06-26T21:21:37.824Z,18.70
2017-06-26T21:24:06.117Z,18.80
2017-06-26T21:26:33.666Z,18.80
2017-06-26T21:29:01.193Z,18.90
2017-06-26T21:31:28.744Z,18.80
2017-06-26T21:33:56.271Z,18.70
2017-06-26T21:36:24.583Z,18.70
2017-06-26T21:38:52.111Z,18.70
2017-06-26T21:41:19.657Z,18.70
2017-06-26T21:43:47.187Z,18.70
2017-06-26T21:46:14.711Z,18.70
2017-06-26T21:48:42.254Z,18.50
2017-06-26T21:51:09.783Z,18.30
2017-06-26T21:53:37.335Z,18.30
2017-06-26T21:56:05.626Z,18.30
2017-06-26T21:58:33.171Z,18.20
2017-06-26T22:01:00.695Z,18.20
2017-06-26T22:03:28.239Z,18.00
2017-06-26T22:05:56.531Z,17.50
2017-06-26T22:08:24.056Z,17.40
2017-06-26T22:10:51.595Z,17.30
2017-06-26T22:13:19.124Z,17.40
2017-06-26T22:15:46.671Z,17.50
2017-06-26T22:18:14.197Z,17.60
2017-06-26T22:20:42.510Z,17.50
2017-06-26T22:23:10.037Z,17.50
2017-06-26T22:25:38.375Z,17.10
2017-06-26T22:28:05.901Z,17.10
2017-06-26T22:30:33.447Z,17.10
2017-06-26T22:33:00.972Z,17.10
2017-06-26T22:35:28.499Z,17.20
2017-06-26T22:37:56.042Z,17.20
2017-06-26T22:40:23.568Z,17.20
2017-06-26T22:42:51.111Z,16.90
2017-06-26T22:45:18.634Z,16.70
2017-06-26T22:47:46.943Z,16.70
2017-06-26T22:50:14.470Z,16.70
2017-06-26T22:52:42.027Z,16.80
2017-06-26T22:55:09.557Z,16.90
2017-06-26T22:57:37.083Z,17.00
2017-06-26T23:00:04.626Z,17.10
2017-06-26T23:02:32.153Z,17.00
2017-06-26T23:04:59.694Z,17.00
2017-06-26T23:07:27.986Z,17.00
2017-06-26T23:09:55.526Z,16.90
2017-06-26T23:12:23.046Z,17.00
2017-06-26T23:14:50.598Z,17.00
2017-06-26T23:17:18.115Z,16.90
2017-06-26T23:19:45.639Z,16.90
2017-06-26T23:22:13.204Z,16.90
2017-06-26T23:24:40.730Z,16.80
2017-06-26T23:27:08.279Z,16.90
2017-06-26T23:29:35.803Z,16.90
2017-06-26T23:32:04.114Z,16.80
2017-06-26T23:34:31.643Z,16.80
2017-06-26T23:36:59.191Z,16.70
2017-06-26T23:39:26.715Z,16.40
2017-06-26T23:41:54.275Z,16.30
2017-06-26T23:44:21.822Z,16.20
2017-06-26T23:46:50.118Z,16.40
2017-06-26T23:49:17.670Z,16.30
2017-06-26T23:51:45.215Z,16.40
2017-06-26T23:54:12.762Z,16.20
2017-06-26T23:56:40.287Z,16.20
2017-06-26T23:59:07.834Z,16.00
